createdAt,value
2018-06-03T11:36:03.145Z,23.14
2018-06-03T11:37:02.562Z,22.89
2018-06-03T11:38:55.389Z,22.96
2018-06-03T11:39:55.360Z,22.84
2018-06-03T11:41:48.271Z,23.19
2018-06-03T11:42:48.221Z,23.00
2018-06-03T11:43:48.201Z,22.86
2018-06-03T11:44:48.171Z,22.91
2018-06-03T11:45:48.163Z,23.14
2018-06-03T11:46:48.127Z,23.35
2018-06-03T11:47:48.119Z,23.81
2018-06-03T11:48:48.093Z,24.29
2018-06-03T11:49:48.108Z,24.34
2018-06-03T11:50:48.054Z,24.49
2018-06-03T11:51:48.032Z,24.56
2018-06-03T11:52:48.004Z,24.54
2018-06-03T11:53:47.992Z,24.08
2018-06-03T11:54:47.962Z,24.08
2018-06-03T11:55:47.947Z,24.03
2018-06-03T11:56:47.922Z,24.00
2018-06-03T11:57:47.904Z,23.92
2018-06-03T11:58:47.885Z,23.82
2018-06-03T11:59:47.860Z,24.03
2018-06-03T12:00:47.848Z,24.03
2018-06-03T12:01:47.833Z,23.87
2018-06-03T12:02:47.803Z,23.93
2018-06-03T12:03:47.790Z,23.97
2018-06-03T12:04:47.760Z,24.00
2018-06-03T12:05:47.748Z,24.04
2018-06-03T12:06:47.717Z,24.15
2018-06-03T12:07:47.705Z,24.36
2018-06-03T12:08:47.680Z,24.44
2018-06-03T12:09:47.662Z,24.37
2018-06-03T12:10:47.645Z,24.45
2018-06-03T12:11:47.627Z,24.40
2018-06-03T12:12:47.604Z,24.26
2018-06-03T12:13:47.584Z,24.22
2018-06-03T12:14:47.561Z,24.29
2018-06-03T12:15:47.550Z,24.40
2018-06-03T12:16:47.519Z,24.48
2018-06-03T12:17:47.508Z,24.44
2018-06-03T12:18:47.487Z,24.29
2018-06-03T12:19:47.473Z,24.09
2018-06-03T12:20:47.459Z,24.02
2018-06-03T12:21:47.425Z,23.93
2018-06-03T12:22:47.412Z,23.87
2018-06-03T12:23:47.385Z,23.82
2018-06-03T12:24:47.372Z,23.74
2018-06-03T12:25:47.406Z,23.72
2018-06-03T12:26:47.339Z,23.59
2018-06-03T12:27:47.307Z,23.47
2018-06-03T12:28:47.293Z,23.47
2018-06-03T12:29:47.269Z,23.21
2018-06-03T12:30:47.253Z,23.38
2018-06-03T12:31:47.461Z,23.47
2018-06-03T12:32:47.223Z,23.48
2018-06-03T12:33:47.186Z,23.57
2018-06-03T12:34:47.175Z,23.70
2018-06-03T12:35:47.157Z,23.79
2018-06-03T12:36:47.133Z,23.84
2018-06-03T12:37:47.117Z,23.79
2018-06-03T12:38:47.091Z,23.72
2018-06-03T12:39:47.080Z,23.81
2018-06-03T12:40:47.061Z,23.97
2018-06-03T12:41:47.045Z,24.03
2018-06-03T12:42:47.026Z,24.02
2018-06-03T12:43:46.990Z,23.99
2018-06-03T12:44:46.981Z,24.17
2018-06-03T12:45:46.974Z,24.32
2018-06-03T12:46:46.955Z,24.42
2018-06-03T12:47:46.916Z,24.51
2018-06-03T12:48:46.901Z,24.59
2018-06-03T12:49:46.882Z,24.64
2018-06-03T12:50:46.854Z,24.89
2018-06-03T12:51:46.836Z,24.89
2018-06-03T12:52:46.820Z,24.85
2018-06-03T12:53:46.803Z,24.71
2018-06-03T12:54:46.790Z,24.67
2018-06-03T12:55:46.766Z,24.44
2018-06-03T12:56:46.748Z,24.30
2018-06-03T12:57:46.739Z,24.04
2018-06-03T12:58:46.702Z,23.97
2018-06-03T12:59:46.687Z,24.08
2018-06-03T13:00:46.675Z,24.12
2018-06-03T13:01:46.656Z,24.08
2018-06-03T13:02:46.634Z,24.09
2018-06-03T13:03:46.609Z,24.09
2018-06-03T13:04:46.600Z,24.04
2018-06-03T13:05:46.578Z,24.00
2018-06-03T13:06:46.554Z,23.99
2018-06-03T13:07:46.536Z,23.97
2018-06-03T13:08:46.531Z,23.97
2018-06-03T13:09:46.506Z,23.97
2018-06-03T13:10:46.476Z,23.97
2018-06-03T13:11:46.459Z,24.11
2018-06-03T13:12:46.447Z,24.14
2018-06-03T13:13:46.423Z,24.24
2018-06-03T13:14:46.401Z,24.19
2018-06-03T13:15:46.385Z,24.18
2018-06-03T13:16:46.365Z,24.27
2018-06-03T13:17:46.349Z,24.09
2018-06-03T13:18:46.325Z,24.27
2018-06-03T13:19:46.313Z,24.40
2018-06-03T13:20:46.285Z,24.40
2018-06-03T13:21:46.276Z,24.36
2018-06-03T13:22:46.265Z,24.45
2018-06-03T13:23:46.233Z,24.34
2018-06-03T13:24:46.213Z,24.45
2018-06-03T13:25:46.194Z,24.40
2018-06-03T13:26:46.172Z,24.51
2018-06-03T13:27:46.224Z,24.37
2018-06-03T13:28:46.134Z,24.37
2018-06-03T13:29:46.132Z,24.42
2018-06-03T13:30:46.094Z,24.44
2018-06-03T13:31:46.083Z,24.59
2018-06-03T13:32:46.062Z,24.49
2018-06-03T13:33:46.039Z,24.71
2018-06-03T13:34:46.024Z,24.90
2018-06-03T13:35:45.999Z,24.74
2018-06-03T13:36:45.990Z,24.96
2018-06-03T13:37:45.963Z,24.94
2018-06-03T13:38:45.951Z,24.94
2018-06-03T13:39:45.931Z,25.12
2018-06-03T13:40:45.906Z,24.93
2018-06-03T13:41:45.895Z,24.89
2018-06-03T13:42:45.876Z,24.86
2018-06-03T13:43:45.851Z,24.78
2018-06-03T13:44:45.839Z,24.96
2018-06-03T13:45:45.821Z,25.27
2018-06-03T13:46:45.802Z,25.29
2018-06-03T13:47:45.776Z,24.93
2018-06-03T13:48:45.766Z,25.07
2018-06-03T13:49:45.744Z,25.09
2018-06-03T13:50:45.733Z,25.09
2018-06-03T13:51:45.704Z,25.15
2018-06-03T13:52:45.691Z,25.14
2018-06-03T13:53:45.673Z,25.02
2018-06-03T13:54:45.648Z,24.86
2018-06-03T13:55:45.633Z,24.89
2018-06-03T13:56:45.619Z,24.94
2018-06-03T13:57:45.590Z,24.96
2018-06-03T13:58:45.576Z,25.19
2018-06-03T13:59:45.566Z,25.14
2018-06-03T14:00:45.539Z,25.20
2018-06-03T14:01:45.520Z,25.02
2018-06-03T14:02:45.540Z,25.02
2018-06-03T14:03:45.495Z,24.92
2018-06-03T14:04:45.469Z,25.05
2018-06-03T14:05:45.453Z,25.15
2018-06-03T14:06:45.428Z,25.07
2018-06-03T14:07:45.407Z,24.86
2018-06-03T14:08:45.400Z,24.77
2018-06-03T14:09:45.377Z,24.77
2018-06-03T14:10:45.357Z,24.89
2018-06-03T14:11:45.335Z,25.01
2018-06-03T14:12:45.326Z,25.02
2018-06-03T14:13:45.298Z,25.09
2018-06-03T14:14:45.283Z,24.97
2018-06-03T14:15:45.265Z,25.00
2018-06-03T14:16:45.244Z,25.02
2018-06-03T14:17:45.227Z,25.00
2018-06-03T14:18:45.214Z,24.96
2018-06-03T14:19:45.189Z,24.96
2018-06-03T14:20:45.183Z,24.97
2018-06-03T14:21:45.154Z,25.12
2018-06-03T14:22:45.141Z,25.37
2018-06-03T14:23:45.121Z,25.32
2018-06-03T14:24:45.103Z,25.37
2018-06-03T14:25:45.135Z,25.34
2018-06-03T14:26:45.065Z,25.49
2018-06-03T14:27:45.052Z,25.69
2018-06-03T14:28:45.026Z,25.60
2018-06-03T14:29:45.014Z,25.44
2018-06-03T14:30:44.997Z,25.27
2018-06-03T14:31:44.983Z,25.26
2018-06-03T14:32:44.966Z,25.14
2018-06-03T14:33:44.939Z,25.29
2018-06-03T14:34:44.939Z,25.14
2018-06-03T14:35:44.908Z,24.93
2018-06-03T14:36:44.885Z,24.87
2018-06-03T14:37:44.882Z,25.05
2018-06-03T14:38:44.860Z,25.08
2018-06-03T14:39:44.833Z,25.19
2018-06-03T14:40:44.814Z,25.26
2018-06-03T14:41:44.800Z,25.39
2018-06-03T14:42:44.778Z,25.67
2018-06-03T14:43:44.757Z,25.74
2018-06-03T14:44:44.745Z,25.81
2018-06-03T14:45:44.733Z,25.76
2018-06-03T14:46:44.711Z,25.86
2018-06-03T14:47:44.693Z,25.94
2018-06-03T14:48:44.670Z,25.88
2018-06-03T14:49:44.650Z,25.86
2018-06-03T14:50:44.701Z,25.60
2018-06-03T14:51:44.622Z,25.59
2018-06-03T14:52:44.594Z,25.41
2018-06-03T14:53:44.583Z,25.38
2018-06-03T14:54:44.557Z,25.63
2018-06-03T14:55:44.546Z,25.54
2018-06-03T14:56:44.525Z,25.52
2018-06-03T14:57:44.509Z,25.30
2018-06-03T14:58:44.443Z,25.34
2018-06-03T14:59:44.422Z,25.39
2018-06-03T15:00:44.402Z,25.44
2018-06-03T15:01:44.386Z,25.57
2018-06-03T15:02:44.363Z,25.39
2018-06-03T15:03:44.347Z,25.26
2018-06-03T15:04:44.337Z,25.20
2018-06-03T15:05:44.315Z,25.20
2018-06-03T15:06:44.297Z,25.00
2018-06-03T15:07:44.281Z,25.02
2018-06-03T15:08:44.258Z,25.02
2018-06-03T15:09:44.248Z,24.87
2018-06-03T15:10:44.225Z,24.90
2018-06-03T15:11:44.211Z,24.92
2018-06-03T15:12:44.192Z,24.77
2018-06-03T15:13:44.207Z,24.86
2018-06-03T15:14:44.147Z,24.78
2018-06-03T15:15:44.136Z,24.93
2018-06-03T15:16:44.115Z,24.89
2018-06-03T15:17:44.095Z,24.97
2018-06-03T15:18:44.081Z,24.75
2018-06-03T15:19:44.075Z,24.69
2018-06-03T15:20:44.065Z,24.69
2018-06-03T15:21:44.043Z,24.66
2018-06-03T15:22:44.032Z,24.83
2018-06-03T15:23:44.014Z,24.87
2018-06-03T15:24:44.010Z,24.77
2018-06-03T15:25:43.992Z,24.75
2018-06-03T15:26:43.972Z,24.82
2018-06-03T15:27:43.957Z,24.64
2018-06-03T15:28:43.936Z,24.48
2018-06-03T15:29:43.924Z,24.45
2018-06-03T15:30:43.905Z,24.36
2018-06-03T15:31:43.884Z,24.37
2018-06-03T15:32:43.877Z,24.44
2018-06-03T15:33:43.890Z,24.24
2018-06-03T15:34:43.856Z,24.32
2018-06-03T15:35:43.812Z,24.32
2018-06-03T15:36:43.802Z,24.33
2018-06-03T15:37:43.785Z,24.24
2018-06-03T15:38:43.773Z,24.32
2018-06-03T15:39:43.747Z,24.46
2018-06-03T15:40:44.013Z,24.48
2018-06-03T15:41:43.710Z,24.48
2018-06-03T15:42:43.701Z,24.42
2018-06-03T15:43:43.722Z,24.45
2018-06-03T15:44:43.656Z,24.40
2018-06-03T15:45:43.643Z,24.49
2018-06-03T15:46:43.613Z,24.64
2018-06-03T15:47:43.601Z,24.42
2018-06-03T15:48:43.590Z,24.49
2018-06-03T15:49:43.578Z,24.71
2018-06-03T15:50:43.545Z,24.56
2018-06-03T15:51:43.532Z,24.61
2018-06-03T15:52:43.509Z,24.55
2018-06-03T15:53:43.497Z,24.49
2018-06-03T15:54:43.474Z,24.61
2018-06-03T15:55:43.460Z,24.49
2018-06-03T15:56:43.432Z,24.59
2018-06-03T15:57:43.423Z,24.61
2018-06-03T15:58:43.397Z,24.61
2018-06-03T15:59:43.384Z,24.61
2018-06-03T16:00:43.364Z,24.56
2018-06-03T16:01:43.349Z,24.70
2018-06-03T16:02:43.326Z,24.82
2018-06-03T16:03:43.316Z,25.02
2018-06-03T16:04:43.295Z,24.97
2018-06-03T16:05:43.306Z,25.12
2018-06-03T16:06:43.251Z,25.48
2018-06-03T16:07:43.239Z,25.91
2018-06-03T16:08:43.218Z,26.53
2018-06-03T16:09:43.205Z,27.15
2018-06-03T16:10:43.187Z,27.68
2018-06-03T16:11:43.170Z,28.36
2018-06-03T16:12:43.146Z,29.01
2018-06-03T16:13:43.180Z,29.55
2018-06-03T16:14:43.110Z,29.58
2018-06-03T16:15:43.128Z,29.23
2018-06-03T16:16:43.076Z,29.21
2018-06-03T16:17:43.068Z,29.65
2018-06-03T16:18:43.043Z,30.35
2018-06-03T16:19:43.030Z,30.32
2018-06-03T16:20:43.018Z,29.98
2018-06-03T16:21:42.998Z,29.94
2018-06-03T16:22:42.987Z,29.95
2018-06-03T16:23:42.965Z,30.44
2018-06-03T16:24:42.956Z,30.89
2018-06-03T16:25:42.948Z,30.86
2018-06-03T16:26:42.935Z,30.79
2018-06-03T16:27:42.958Z,30.93
2018-06-03T16:28:42.888Z,31.43
2018-06-03T16:29:42.873Z,31.45
2018-06-03T16:30:42.916Z,31.07
2018-06-03T16:31:42.911Z,31.06
2018-06-03T16:32:42.825Z,31.45
2018-06-03T16:33:42.811Z,31.72
2018-06-03T16:34:42.790Z,32.03
2018-06-03T16:35:42.796Z,32.20
2018-06-03T16:36:42.768Z,31.67
2018-06-03T16:37:42.749Z,31.74
2018-06-03T16:38:42.733Z,31.80
2018-06-03T16:39:42.727Z,32.06
2018-06-03T16:40:42.728Z,32.49
2018-06-03T16:41:42.698Z,33.17
2018-06-03T16:42:42.690Z,33.39
2018-06-03T16:43:42.671Z,32.87
2018-06-03T16:44:42.668Z,32.53
2018-06-03T16:45:42.653Z,31.87
2018-06-03T16:46:42.650Z,32.47
2018-06-03T16:47:42.635Z,32.62
2018-06-03T16:48:42.637Z,33.06
2018-06-03T16:49:42.611Z,32.61
2018-06-03T16:50:42.675Z,32.59
2018-06-03T16:51:42.580Z,32.89
2018-06-03T16:52:42.584Z,32.96
2018-06-03T16:53:42.563Z,32.31
2018-06-03T16:54:42.549Z,32.81
2018-06-03T16:55:42.539Z,33.39
2018-06-03T16:56:42.539Z,33.23
2018-06-03T16:57:42.525Z,33.08
2018-06-03T16:58:42.517Z,32.91
2018-06-03T16:59:42.513Z,32.42
2018-06-03T17:00:42.485Z,32.81
2018-06-03T17:01:42.482Z,33.18
2018-06-03T17:02:43.373Z,32.84
2018-06-03T17:03:42.455Z,32.72
2018-06-03T17:04:42.454Z,33.13
2018-06-03T17:05:42.474Z,33.37
2018-06-03T17:06:42.419Z,33.66
2018-06-03T17:07:42.423Z,33.29
2018-06-03T17:08:42.400Z,33.08
2018-06-03T17:09:42.400Z,33.13
2018-06-03T17:10:42.378Z,32.54
2018-06-03T17:11:42.374Z,31.75
2018-06-03T17:12:42.359Z,32.08
2018-06-03T17:13:42.351Z,32.20
2018-06-03T17:14:42.350Z,31.94
2018-06-03T17:15:42.325Z,31.82
2018-06-03T17:16:42.343Z,31.63
2018-06-03T17:17:42.302Z,31.19
2018-06-03T17:18:42.305Z,31.30
2018-06-03T17:19:42.286Z,31.33
2018-06-03T17:20:42.284Z,31.44
2018-06-03T17:21:42.266Z,31.34
2018-06-03T17:22:42.257Z,32.25
2018-06-03T17:23:42.251Z,32.65
2018-06-03T17:24:42.233Z,32.80
2018-06-03T17:25:42.223Z,33.16
2018-06-03T17:26:42.217Z,33.08
2018-06-03T17:27:42.200Z,33.06
2018-06-03T17:28:42.191Z,32.69
2018-06-03T17:29:42.193Z,32.06
2018-06-03T17:30:42.164Z,32.39
2018-06-03T17:31:42.158Z,32.19
2018-06-03T17:32:42.152Z,32.17
2018-06-03T17:33:42.143Z,32.10
2018-06-03T17:34:42.121Z,32.23
2018-06-03T17:35:42.107Z,32.25
2018-06-03T17:36:42.104Z,31.60
2018-06-03T17:37:42.092Z,32.01
2018-06-03T17:38:42.076Z,31.67
2018-06-03T17:39:42.071Z,31.04
2018-06-03T17:40:42.052Z,30.06
2018-06-03T17:41:42.050Z,29.57
2018-06-03T17:42:42.098Z,29.39
2018-06-03T17:43:42.021Z,29.18
2018-06-03T17:44:42.014Z,29.40
2018-06-03T17:45:42.001Z,29.23
2018-06-03T17:46:41.983Z,28.18
2018-06-03T17:47:41.967Z,27.53
2018-06-03T17:48:41.964Z,27.11
2018-06-03T17:49:41.947Z,26.86
2018-06-03T17:50:41.979Z,26.72
2018-06-03T17:51:41.918Z,26.67
2018-06-03T17:52:41.946Z,26.63
2018-06-03T17:53:41.900Z,26.69
2018-06-03T17:54:41.879Z,26.75
2018-06-03T17:55:41.871Z,26.82
2018-06-03T17:56:41.852Z,27.11
2018-06-03T17:57:41.839Z,27.12
2018-06-03T17:58:41.827Z,27.01
2018-06-03T17:59:41.818Z,27.53
2018-06-03T18:00:41.791Z,27.52
2018-06-03T18:01:41.785Z,27.55
2018-06-03T18:02:41.780Z,27.72
2018-06-03T18:03:41.765Z,27.27
2018-06-03T18:04:41.734Z,27.01
2018-06-03T18:05:41.741Z,26.61
2018-06-03T18:06:41.700Z,26.71
2018-06-03T18:07:41.690Z,26.99
2018-06-03T18:08:41.671Z,27.42
2018-06-03T18:09:41.660Z,27.59
2018-06-03T18:10:41.653Z,27.53
2018-06-03T18:11:41.626Z,27.30
2018-06-03T18:12:41.613Z,26.93
2018-06-03T18:13:41.593Z,26.00
2018-06-03T18:14:41.578Z,25.54
2018-06-03T18:15:41.557Z,25.22
2018-06-03T18:16:41.549Z,24.85
2018-06-03T18:17:41.522Z,24.66
2018-06-03T18:18:41.516Z,24.58
2018-06-03T18:19:41.489Z,24.46
2018-06-03T18:20:41.481Z,24.40
2018-06-03T18:21:41.458Z,24.32
2018-06-03T18:22:41.450Z,24.24
2018-06-03T18:23:41.425Z,24.14
2018-06-03T18:24:41.410Z,24.11
2018-06-03T18:25:41.389Z,24.11
2018-06-03T18:26:41.376Z,24.12
2018-06-03T18:27:41.360Z,24.18
2018-06-03T18:28:41.334Z,24.24
2018-06-03T18:29:41.324Z,24.36
2018-06-03T18:30:41.297Z,24.18
2018-06-03T18:31:41.286Z,24.21
2018-06-03T18:32:41.265Z,24.09
2018-06-03T18:33:41.281Z,24.09
2018-06-03T18:34:41.232Z,24.00
2018-06-03T18:35:41.207Z,23.84
2018-06-03T18:36:41.198Z,23.75
2018-06-03T18:37:41.178Z,23.60
2018-06-03T18:38:41.157Z,23.52
2018-06-03T18:39:41.146Z,23.45
2018-06-03T18:40:41.120Z,23.47
2018-06-03T18:41:41.104Z,23.44
2018-06-03T18:42:41.082Z,23.41
2018-06-03T18:43:41.063Z,23.40
2018-06-03T18:44:41.041Z,23.32
2018-06-03T18:45:41.032Z,23.32
2018-06-03T18:46:41.004Z,23.21
2018-06-03T18:47:40.997Z,23.25
2018-06-03T18:48:40.971Z,23.32
2018-06-03T18:49:40.954Z,23.21
2018-06-03T18:50:40.930Z,23.22
2018-06-03T18:51:44.469Z,23.22
2018-06-03T18:52:40.896Z,23.24
2018-06-03T18:53:40.877Z,23.18
2018-06-03T18:54:40.850Z,23.29
2018-06-03T18:55:40.834Z,23.22
2018-06-03T18:56:40.817Z,23.15
2018-06-03T18:57:40.817Z,23.10
2018-06-03T18:58:40.779Z,23.06
2018-06-03T18:59:40.759Z,23.03
2018-06-03T19:00:40.738Z,23.03
2018-06-03T19:01:40.718Z,23.01
2018-06-03T19:02:40.698Z,22.96
2018-06-03T19:03:40.680Z,22.99
2018-06-03T19:04:40.657Z,22.94
2018-06-03T19:05:40.638Z,22.89
2018-06-03T19:06:40.627Z,22.89
2018-06-03T19:07:40.599Z,22.84
2018-06-03T19:08:40.585Z,22.73
2018-06-03T19:09:40.554Z,22.82
2018-06-03T19:10:40.552Z,22.76
2018-06-03T19:11:40.529Z,22.82
2018-06-03T19:12:40.499Z,22.78
2018-06-03T19:13:40.546Z,22.73
2018-06-03T19:14:40.463Z,22.63
2018-06-03T19:15:40.445Z,22.61
2018-06-03T19:16:40.422Z,22.64
2018-06-03T19:17:40.398Z,22.64
2018-06-03T19:18:40.385Z,22.60
2018-06-03T19:19:40.366Z,22.57
2018-06-03T19:20:40.345Z,22.57
2018-06-03T19:21:40.328Z,22.57
2018-06-03T19:22:40.301Z,22.55
2018-06-03T19:23:40.288Z,22.60
2018-06-03T19:24:40.264Z,22.44
2018-06-03T19:25:40.242Z,22.48
2018-06-03T19:26:40.224Z,22.31
2018-06-03T19:27:40.208Z,22.33
2018-06-03T19:28:40.189Z,22.34
2018-06-03T19:29:40.165Z,22.33
2018-06-03T19:30:40.152Z,22.31
2018-06-03T19:31:40.130Z,22.26
2018-06-03T19:32:40.102Z,22.26
2018-06-03T19:33:40.095Z,22.15
2018-06-03T19:34:40.061Z,22.20
2018-06-03T19:35:40.044Z,22.15
2018-06-03T19:36:40.022Z,22.04
2018-06-03T19:37:40.005Z,22.09
2018-06-03T19:38:39.986Z,22.08
2018-06-03T19:39:39.960Z,22.02
2018-06-03T19:40:40.000Z,21.97
2018-06-03T19:41:39.924Z,21.86
2018-06-03T19:42:39.909Z,21.82
2018-06-03T19:43:39.886Z,21.82
2018-06-03T19:44:39.866Z,21.70
2018-06-03T19:45:39.841Z,21.68
2018-06-03T19:46:39.829Z,21.67
2018-06-03T19:47:39.803Z,21.71
2018-06-03T19:48:39.787Z,21.68
2018-06-03T19:49:39.766Z,21.74
2018-06-03T19:50:39.740Z,21.64
2018-06-03T19:51:39.737Z,21.62
2018-06-03T19:52:39.697Z,21.58
2018-06-03T19:53:39.686Z,21.56
2018-06-03T19:54:39.654Z,21.56
2018-06-03T19:55:39.644Z,21.51
2018-06-03T19:56:39.614Z,21.46
2018-06-03T19:57:39.604Z,21.49
2018-06-03T19:58:39.578Z,21.55
2018-06-03T19:59:39.554Z,21.53
2018-06-03T20:00:39.538Z,21.49
2018-06-03T20:01:39.512Z,21.52
2018-06-03T20:02:39.493Z,21.55
2018-06-03T20:03:39.496Z,21.53
2018-06-03T20:04:39.456Z,21.46
2018-06-03T20:05:39.432Z,21.52
2018-06-03T20:06:39.419Z,21.49
2018-06-03T20:07:39.395Z,21.36
2018-06-03T20:08:39.372Z,21.34
2018-06-03T20:09:39.357Z,21.37
2018-06-03T20:10:39.335Z,21.25
2018-06-03T20:11:39.315Z,21.30
2018-06-03T20:12:39.294Z,21.28
2018-06-03T20:13:39.334Z,21.30
2018-06-03T20:14:39.260Z,21.22
2018-06-03T20:15:39.226Z,21.23
2018-06-03T20:16:39.208Z,21.22
2018-06-03T20:17:39.245Z,21.22
2018-06-03T20:18:39.168Z,21.13
2018-06-03T20:19:39.146Z,21.08
2018-06-03T20:20:39.126Z,21.08
2018-06-03T20:21:39.140Z,21.13
2018-06-03T20:22:39.088Z,21.13
2018-06-03T20:23:39.059Z,21.09
2018-06-03T20:24:39.121Z,21.16
2018-06-03T20:25:39.023Z,21.09
2018-06-03T20:26:38.995Z,21.08
2018-06-03T20:27:39.030Z,21.08
2018-06-03T20:28:38.957Z,21.18
2018-06-03T20:29:38.944Z,21.11
2018-06-03T20:30:38.934Z,21.09
2018-06-03T20:31:38.900Z,21.04
2018-06-03T20:32:38.877Z,21.01
2018-06-03T20:33:38.871Z,21.00
2018-06-03T20:34:38.834Z,20.97
2018-06-03T20:35:38.889Z,20.98
2018-06-03T20:36:38.785Z,20.98
2018-06-03T20:37:38.774Z,21.03
2018-06-03T20:38:38.741Z,20.91
2018-06-03T20:39:38.726Z,20.96
2018-06-03T20:40:38.705Z,20.85
2018-06-03T20:41:38.683Z,20.81
2018-06-03T20:42:38.676Z,20.86
2018-06-03T20:43:38.640Z,20.76
2018-06-03T20:44:38.633Z,20.72
2018-06-03T20:45:38.602Z,20.76
2018-06-03T20:46:38.575Z,20.74
2018-06-03T20:47:38.564Z,20.58
2018-06-03T20:48:38.532Z,20.61
2018-06-03T20:49:38.522Z,20.48
2018-06-03T20:50:38.493Z,20.46
2018-06-03T20:51:38.470Z,20.46
2018-06-03T20:52:38.506Z,20.44
2018-06-03T20:53:38.427Z,20.41
2018-06-03T20:54:38.412Z,20.42
2018-06-03T20:55:38.385Z,20.40
2018-06-03T20:56:38.366Z,20.26
2018-06-03T20:57:38.342Z,20.26
2018-06-03T20:58:38.323Z,20.29
2018-06-03T20:59:38.298Z,20.18
2018-06-03T21:00:38.286Z,20.25
2018-06-03T21:01:38.257Z,20.18
2018-06-03T21:02:38.238Z,20.11
2018-06-03T21:03:38.213Z,20.12
2018-06-03T21:04:38.199Z,20.23
2018-06-03T21:05:38.166Z,20.11
2018-06-03T21:06:38.154Z,20.22
2018-06-03T21:07:38.129Z,20.15
2018-06-03T21:08:38.110Z,20.19
2018-06-03T21:09:38.091Z,20.19
2018-06-03T21:10:38.065Z,20.19
2018-06-03T21:11:38.036Z,20.18
2018-06-03T21:12:38.023Z,20.07
2018-06-03T21:13:38.010Z,20.07
2018-06-03T21:14:38.017Z,20.08
2018-06-03T21:15:37.954Z,20.07
2018-06-03T21:16:37.940Z,20.12
2018-06-03T21:17:37.917Z,20.08
2018-06-03T21:18:37.917Z,20.08
2018-06-03T21:19:37.883Z,20.12
2018-06-03T21:20:37.848Z,20.07
2018-06-03T21:21:37.829Z,20.11
2018-06-03T21:22:37.802Z,20.19
2018-06-03T21:23:37.776Z,20.12
2018-06-03T21:24:37.793Z,20.12
2018-06-03T21:25:37.779Z,20.11
2018-06-03T21:26:37.779Z,20.12
2018-06-03T21:27:37.696Z,20.05
2018-06-03T21:28:37.677Z,20.00
2018-06-03T21:29:37.657Z,20.02
2018-06-03T21:30:38.463Z,20.00
2018-06-03T21:31:37.627Z,19.93
2018-06-03T21:32:37.597Z,20.01
2018-06-03T21:33:37.597Z,19.93
2018-06-03T21:34:37.538Z,19.92
2018-06-03T21:35:37.520Z,19.95
2018-06-03T21:36:37.508Z,20.02
2018-06-03T21:37:37.482Z,19.95
2018-06-03T21:38:37.456Z,19.95
2018-06-03T21:39:37.439Z,19.86
2018-06-03T21:40:37.446Z,19.89
2018-06-03T21:41:37.394Z,19.74
2018-06-03T21:42:37.365Z,19.78
2018-06-03T21:43:37.408Z,19.71
2018-06-03T21:44:37.324Z,19.80
2018-06-03T21:45:37.304Z,19.74
2018-06-03T21:46:37.280Z,19.79
2018-06-03T21:47:37.263Z,19.71
2018-06-03T21:48:37.247Z,19.75
2018-06-03T21:49:37.220Z,19.68
2018-06-03T21:50:37.201Z,19.60
2018-06-03T21:51:37.177Z,19.57
2018-06-03T21:52:37.153Z,19.61
2018-06-03T21:53:37.184Z,19.61
2018-06-03T21:54:37.106Z,19.63
2018-06-03T21:55:37.085Z,19.56
2018-06-03T21:56:37.072Z,19.60
2018-06-03T21:57:37.050Z,19.64
2018-06-03T21:58:37.031Z,19.53
2018-06-03T21:59:37.007Z,19.61
2018-06-03T22:00:37.061Z,19.64
2018-06-03T22:01:36.953Z,19.55
2018-06-03T22:02:36.933Z,19.55
2018-06-03T22:03:36.916Z,19.63
2018-06-03T22:04:36.889Z,19.53
2018-06-03T22:05:36.877Z,19.60
2018-06-03T22:06:36.843Z,19.57
2018-06-03T22:07:36.839Z,19.56
2018-06-03T22:08:36.801Z,19.53
2018-06-03T22:09:36.783Z,19.42
2018-06-03T22:10:36.757Z,19.50
2018-06-03T22:11:36.789Z,19.43
2018-06-03T22:12:36.773Z,19.34
2018-06-03T22:13:36.697Z,19.32
2018-06-03T22:14:36.672Z,19.30
2018-06-03T22:15:36.643Z,19.32
2018-06-03T22:16:36.641Z,19.28
2018-06-03T22:17:36.606Z,19.23
2018-06-03T22:18:36.580Z,19.24
2018-06-03T22:19:36.559Z,19.17
2018-06-03T22:20:36.536Z,19.24
2018-06-03T22:21:36.518Z,19.17
2018-06-03T22:22:36.493Z,19.28
2018-06-03T22:23:36.469Z,19.24
2018-06-03T22:24:36.455Z,19.32
2018-06-03T22:25:36.435Z,19.23
2018-06-03T22:26:36.437Z,19.28
2018-06-03T22:27:36.382Z,19.19
2018-06-03T22:28:36.366Z,19.17
2018-06-03T22:29:36.343Z,19.10
2018-06-03T22:30:36.318Z,19.27
2018-06-03T22:31:36.293Z,19.20
2018-06-03T22:32:36.274Z,19.09
2018-06-03T22:33:36.254Z,19.20
2018-06-03T22:34:36.224Z,19.15
2018-06-03T22:35:36.212Z,19.23
2018-06-03T22:36:36.187Z,19.09
2018-06-03T22:37:36.167Z,19.09
2018-06-03T22:38:36.142Z,19.17
2018-06-03T22:39:36.120Z,19.06
2018-06-03T22:40:36.098Z,19.16
2018-06-03T22:41:36.070Z,19.16
2018-06-03T22:42:36.055Z,19.09
2018-06-03T22:43:36.027Z,19.06
2018-06-03T22:44:36.013Z,19.06
2018-06-03T22:45:35.983Z,19.20
2018-06-03T22:46:35.968Z,19.15
2018-06-03T22:47:35.946Z,19.13
2018-06-03T22:48:35.920Z,19.10
2018-06-03T22:49:35.901Z,19.02
2018-06-03T22:50:35.877Z,19.16
2018-06-03T22:51:35.853Z,19.00
2018-06-03T22:52:35.835Z,19.02
2018-06-03T22:53:35.808Z,18.94
2018-06-03T22:54:35.788Z,18.94
2018-06-03T22:55:35.761Z,18.90
2018-06-03T22:56:35.742Z,18.86
2018-06-03T22:57:35.717Z,18.87
2018-06-03T22:58:35.704Z,18.87
2018-06-03T22:59:35.685Z,18.87
2018-06-03T23:00:35.649Z,18.84
2018-06-03T23:01:35.634Z,18.91
2018-06-03T23:02:35.613Z,18.86
2018-06-03T23:03:35.583Z,18.93
2018-06-03T23:04:35.571Z,18.91
2018-06-03T23:05:35.544Z,18.91
2018-06-03T23:06:35.518Z,18.90
2018-06-03T23:07:35.502Z,18.96
2018-06-03T23:08:35.475Z,18.90
2018-06-03T23:09:35.469Z,18.91
2018-06-03T23:10:35.431Z,18.94
2018-06-03T23:11:35.413Z,18.94
2018-06-03T23:12:35.388Z,18.91
2018-06-03T23:13:35.362Z,18.90
2018-06-03T23:14:35.337Z,18.90
2018-06-03T23:15:35.325Z,18.86
2018-06-03T23:16:35.303Z,18.93
2018-06-03T23:17:35.277Z,18.90
2018-06-03T23:18:35.252Z,18.87
2018-06-03T23:19:35.239Z,18.90
2018-06-03T23:20:35.204Z,18.84
2018-06-03T23:21:35.189Z,18.89
2018-06-03T23:22:35.162Z,18.89
2018-06-03T23:23:35.148Z,18.91
2018-06-03T23:24:35.121Z,18.89
2018-06-03T23:25:35.100Z,18.96
2018-06-03T23:26:35.069Z,18.99
2018-06-03T23:27:35.054Z,18.90
2018-06-03T23:28:35.027Z,18.81
2018-06-03T23:29:35.020Z,18.81
2018-06-03T23:30:34.988Z,18.81
2018-06-03T23:31:34.967Z,18.89
2018-06-03T23:32:34.937Z,18.74
2018-06-03T23:33:34.923Z,18.84
2018-06-03T23:34:34.889Z,18.82
2018-06-03T23:35:34.874Z,18.75
2018-06-03T23:36:34.851Z,18.78
2018-06-03T23:37:34.828Z,18.75
2018-06-03T23:38:34.803Z,18.78
2018-06-03T23:39:34.785Z,18.78
2018-06-03T23:40:34.769Z,18.71
2018-06-03T23:41:34.733Z,18.74
2018-06-03T23:42:34.721Z,18.71
2018-06-03T23:43:34.714Z,18.74
2018-06-03T23:44:34.671Z,18.79
2018-06-03T23:45:34.645Z,18.66
2018-06-03T23:46:34.627Z,18.69
2018-06-03T23:47:34.599Z,18.79
2018-06-03T23:48:34.584Z,18.71
2018-06-03T23:49:34.552Z,18.71
2018-06-03T23:50:34.539Z,18.68
2018-06-03T23:51:34.522Z,18.72
2018-06-03T23:52:34.494Z,18.65
2018-06-03T23:53:34.473Z,18.68
2018-06-03T23:54:34.440Z,18.68
2018-06-03T23:55:34.425Z,18.63
2018-06-03T23:56:34.394Z,18.66
2018-06-03T23:57:34.407Z,18.71
2018-06-03T23:58:34.354Z,18.72
2018-06-03T23:59:34.337Z,18.66
